createdAt,value
2023-05-18T00:05:02.377Z,19
2023-05-18T00:10:23.195Z,19
2023-05-18T00:15:44.917Z,19
2023-05-18T00:21:06.597Z,19
2023-05-18T00:26:27.579Z,19
2023-05-18T00:32:03.887Z,18.9
2023-05-18T00:37:41.654Z,18.9
2023-05-18T00:43:32.770Z,19
2023-05-18T00:49:25.250Z,19
2023-05-18T00:55:01.576Z,19
2023-05-18T01:00:52.745Z,18.9
2023-05-18T01:06:14.106Z,19
2023-05-18T01:12:06.173Z,18.9
2023-05-18T01:17:57.773Z,18.9
2023-05-18T01:23:48.743Z,18.9
2023-05-18T01:29:25.498Z,18.9
2023-05-18T01:35:01.526Z,18.9
2023-05-18T01:40:55.400Z,18.9
2023-05-18T01:46:32.507Z,18.9
2023-05-18T01:52:09.310Z,18.9
2023-05-18T01:57:45.325Z,18.9
2023-05-18T02:03:39.325Z,18.9
2023-05-18T02:09:14.691Z,18.9
2023-05-18T02:15:06.016Z,18.9
2023-05-18T02:21:00.112Z,18.9
2023-05-18T02:26:53.304Z,18.9
2023-05-18T02:32:29.799Z,18.9
2023-05-18T02:38:07.078Z,18.9
2023-05-18T02:43:58.087Z,18.9
2023-05-18T02:49:35.243Z,18.9
2023-05-18T02:55:26.503Z,18.9
2023-05-18T03:01:20.124Z,18.9
2023-05-18T03:07:13.483Z,18.9
2023-05-18T03:13:05.391Z,18.9
2023-05-18T03:18:42.020Z,18.9
2023-05-18T03:24:04.212Z,18.9
2023-05-18T03:29:40.696Z,18.9
2023-05-18T03:35:33.041Z,18.9
2023-05-18T03:41:24.551Z,18.9
2023-05-18T03:47:01.081Z,18.9
2023-05-18T03:52:52.755Z,18.9
2023-05-18T03:58:45.312Z,18.9
2023-05-18T04:04:38.534Z,18.9
2023-05-18T04:10:32.311Z,18.9
2023-05-18T04:16:23.919Z,18.9
2023-05-18T04:22:17.338Z,18.9
2023-05-18T04:28:08.741Z,18.9
2023-05-18T04:33:59.607Z,18.9
2023-05-18T04:39:37.442Z,18.9
2023-05-18T04:45:29.307Z,18.9
2023-05-18T04:51:21.974Z,18.9
2023-05-18T04:56:58.373Z,18.9
2023-05-18T05:02:49.805Z,18.9
2023-05-18T05:08:44.976Z,18.8
2023-05-18T05:14:37.057Z,18.9
2023-05-18T05:20:28.950Z,18.9
2023-05-18T05:26:21.686Z,18.9
2023-05-18T05:31:58.533Z,18.8
2023-05-18T05:37:50.723Z,18.8
2023-05-18T05:43:44.514Z,18.9
2023-05-18T05:49:36.533Z,18.9
2023-05-18T05:55:28.014Z,18.9
2023-05-18T06:01:19.626Z,18.9
2023-05-18T06:07:12.832Z,18.9
2023-05-18T06:13:06.658Z,18.8
2023-05-18T06:19:02.785Z,18.9
2023-05-18T06:24:54.446Z,18.8
2023-05-18T06:30:46.085Z,18.9
2023-05-18T06:36:38.847Z,18.9
2023-05-18T06:42:16.098Z,18.8
2023-05-18T06:48:07.774Z,18.8
2023-05-18T06:53:43.910Z,18.8
2023-05-18T06:59:20.502Z,18.9
2023-05-18T07:05:12.808Z,18.9
2023-05-18T07:10:49.621Z,18.9
2023-05-18T07:16:25.794Z,18.8
2023-05-18T07:22:20.531Z,18.9
2023-05-18T07:28:11.893Z,18.9
2023-05-18T07:33:49.063Z,18.9
2023-05-18T07:39:41.265Z,18.9
2023-05-18T07:45:17.859Z,18.9
2023-05-18T07:51:10.510Z,18.9
2023-05-18T07:56:46.453Z,18.9
2023-05-18T08:02:22.077Z,18.9
2023-05-18T08:08:00.192Z,18.9
2023-05-18T08:13:36.048Z,18.9
2023-05-18T08:19:44.900Z,18.8
2023-05-18T08:25:22.072Z,18.9
2023-05-18T08:30:59.460Z,18.9
2023-05-18T08:36:36.864Z,18.9
2023-05-18T08:41:58.034Z,18.9
2023-05-18T08:47:49.658Z,18.9
2023-05-18T08:53:29.312Z,18.8
2023-05-18T08:59:05.981Z,18.8
2023-05-18T09:04:43.014Z,18.8
2023-05-18T09:10:19.350Z,18.8
2023-05-18T09:15:58.113Z,18.9
2023-05-18T09:21:35.089Z,18.8
2023-05-18T09:27:11.319Z,18.8
2023-05-18T09:32:50.367Z,18.8
2023-05-18T09:38:27.774Z,18.8
2023-05-18T09:43:48.522Z,18.8
2023-05-18T09:49:10.994Z,18.8
2023-05-18T09:54:46.606Z,18.8
2023-05-18T10:00:22.932Z,18.8
2023-05-18T10:06:01.869Z,18.8
2023-05-18T10:11:07.746Z,18.8
2023-05-18T10:16:13.281Z,18.8
2023-05-18T10:21:33.372Z,18.8
2023-05-18T10:27:11.598Z,18.8
2023-05-18T10:32:51.535Z,18.8
2023-05-18T10:38:44.456Z,18.8
2023-05-18T10:43:53.320Z,18.8
2023-05-18T10:48:59.081Z,18.8
2023-05-18T10:54:20.774Z,18.8
2023-05-18T11:00:55.588Z,18.8
2023-05-18T11:06:16.688Z,18.8
2023-05-18T11:11:38.393Z,18.8
2023-05-18T11:17:14.516Z,18.8
2023-05-18T11:22:50.321Z,18.8
2023-05-18T11:28:42.764Z,18.8
2023-05-18T11:34:39.531Z,18.8
2023-05-18T11:40:31.431Z,18.8
2023-05-18T11:45:53.037Z,18.8
2023-05-18T11:51:32.075Z,18.8
2023-05-18T11:57:11.159Z,18.8
2023-05-18T12:02:32.602Z,18.8
2023-05-18T12:08:16.709Z,18.8
2023-05-18T12:13:37.473Z,18.8
2023-05-18T12:19:15.606Z,18.8
2023-05-18T12:24:50.793Z,18.8
2023-05-18T12:30:26.804Z,18.8
2023-05-18T12:35:49.548Z,18.8
2023-05-18T12:41:23.569Z,18.8
2023-05-18T12:47:17.991Z,18.8
2023-05-18T12:53:12.054Z,18.8
2023-05-18T12:59:03.311Z,18.8
2023-05-18T13:04:40.636Z,18.8
2023-05-18T13:10:17.587Z,18.8
2023-05-18T13:16:36.102Z,18.8
2023-05-18T13:22:31.259Z,18.8
2023-05-18T13:28:09.333Z,18.8
2023-05-18T13:33:30.172Z,18.8
2023-05-18T13:39:23.441Z,18.8
2023-05-18T13:44:44.543Z,18.8
2023-05-18T13:50:22.152Z,18.8
2023-05-18T13:56:00.336Z,18.8
2023-05-18T14:01:52.508Z,18.8
2023-05-18T14:07:31.082Z,18.8
2023-05-18T14:13:06.882Z,18.8
2023-05-18T14:18:58.800Z,18.8
2023-05-18T14:24:49.899Z,18.8
2023-05-18T14:30:41.951Z,18.8
2023-05-18T14:36:35.602Z,18.8
2023-05-18T14:42:11.204Z,18.8
2023-05-18T14:48:19.135Z,18.8
2023-05-18T14:54:12.614Z,18.8
2023-05-18T15:00:02.799Z,18.8
2023-05-18T15:05:56.566Z,18.8
2023-05-18T15:17:23.638Z,18.8
2023-05-18T15:23:15.904Z,18.8
2023-05-18T15:29:09.250Z,18.8
2023-05-18T15:35:00.408Z,19.3
2023-05-18T15:40:52.247Z,20.2
2023-05-18T15:46:44.243Z,20.9
2023-05-18T15:52:19.904Z,21.9
2023-05-18T15:58:11.785Z,22.3
2023-05-18T16:04:04.698Z,22.8
2023-05-18T16:09:40.012Z,23.2
2023-05-18T16:15:19.333Z,23.5
2023-05-18T16:21:11.886Z,23.8
2023-05-18T16:26:32.259Z,24.1
2023-05-18T16:32:25.172Z,24.4
2023-05-18T16:38:16.688Z,24.8
2023-05-18T16:44:09.254Z,25
2023-05-18T16:50:01.952Z,25.3
2023-05-18T16:55:56.573Z,25.4
2023-05-18T17:02:00.103Z,25.8
2023-05-18T17:07:56.098Z,26.3
2023-05-18T17:13:35.521Z,26.8
2023-05-18T17:19:11.808Z,27.1
2023-05-18T17:25:04.082Z,27.5
2023-05-18T17:36:46.131Z,27.9
2023-05-18T17:42:37.504Z,28
2023-05-18T17:48:30.219Z,27.9
2023-05-18T17:54:21.176Z,28.1
2023-05-18T17:59:57.179Z,28
2023-05-18T18:05:51.287Z,28
2023-05-18T18:11:27.574Z,27.9
2023-05-18T18:17:20.005Z,28
2023-05-18T18:22:57.196Z,27.9
2023-05-18T18:28:33.077Z,28
2023-05-18T18:33:54.624Z,28.2
2023-05-18T18:39:46.974Z,28.3
2023-05-18T18:45:38.450Z,28.4
2023-05-18T18:51:30.863Z,28.5
2023-05-18T18:57:22.392Z,28.4
2023-05-18T19:02:57.771Z,28.4
2023-05-18T19:08:50.662Z,28.4
2023-05-18T19:14:27.313Z,28.4
2023-05-18T19:20:20.114Z,28.6
2023-05-18T19:26:12.305Z,28.6
2023-05-18T19:32:04.893Z,28.7
2023-05-18T19:37:41.951Z,28.7
2023-05-18T19:43:36.261Z,28.7
2023-05-18T19:49:29.685Z,28.7
2023-05-18T19:55:19.941Z,28.6
2023-05-18T20:01:12.260Z,28.6
2023-05-18T20:06:49.439Z,28.5
2023-05-18T20:12:40.671Z,28.4
2023-05-18T20:18:33.138Z,28.3
2023-05-18T20:23:54.847Z,28.2
2023-05-18T20:29:33.289Z,28
2023-05-18T20:35:10.281Z,27.9
2023-05-18T20:40:47.393Z,27.8
2023-05-18T20:46:23.026Z,27.6
2023-05-18T20:52:15.468Z,27.5
2023-05-18T20:58:07.341Z,27.3
2023-05-18T21:03:59.552Z,27.1
2023-05-18T21:09:23.869Z,27
2023-05-18T21:15:00.688Z,26.8
2023-05-18T21:20:52.619Z,26.7
2023-05-18T21:26:43.726Z,26.4
2023-05-18T21:32:36.768Z,25.8
2023-05-18T21:38:28.159Z,25.3
2023-05-18T21:43:49.383Z,25
2023-05-18T21:49:28.857Z,24.7
2023-05-18T21:55:05.944Z,24.4
2023-05-18T22:00:42.140Z,24.1
2023-05-18T22:06:34.568Z,23.8
2023-05-18T22:12:25.447Z,23.6
2023-05-18T22:17:46.170Z,23.3
2023-05-18T22:23:35.004Z,23.1
2023-05-18T22:29:09.983Z,23.3
2023-05-18T22:34:46.534Z,24.6
2023-05-18T22:40:07.500Z,24.4
2023-05-18T22:45:58.107Z,24.1
2023-05-18T22:51:50.127Z,23.9
2023-05-18T22:57:26.565Z,23.6
2023-05-18T23:03:02.908Z,23.4
2023-05-18T23:08:38.981Z,23.3
2023-05-18T23:14:30.623Z,23.1
2023-05-18T23:20:22.501Z,22.9
2023-05-18T23:26:14.092Z,22.7
2023-05-18T23:32:06.221Z,22.5
2023-05-18T23:37:58.662Z,22.4
2023-05-18T23:43:50.821Z,22.3
2023-05-18T23:49:43.005Z,22.1
2023-05-18T23:55:34.515Z,22
